Main page
METAR-TAF:

METAR-TAF

Airports :

Federico García Lorca Airport

Granada, Spain

latitude: 37-11N, longitude: 003-47W, elevation: 567 m

Current weather observation

The report was made 30 minutes ago, at 06:00 UTC
Calm wind
Temperature 9°C
Humidity 100%
Pressure 1018 hPa
Visibility: 1700 m
Few clouds at a height of 100 ft
Scattered clouds at a height of 200 ft
fog in vicinity

METAR: LEGR 170600Z 00000KT 1700 VCFG FEW001 SCT002 09/09 Q1018

Time: 08:30 (06:30 UTC)

Forecast

The report was made 4 hours and 30 minutes ago, at 02:00 UTC
Forecast valid from 17 at 03 UTC to 18 at 03 UTC
Wind 2 kt from variable directions
Visibility 10 km or more
Few clouds at a height of 5000 ft
Temporary
from 17 at 03 UTC to 17 at 09 UTC
Visibility: 4000 m
Broken clouds at a height of 500 ft
mist
Probability 40% :
Temporary
from 17 at 04 UTC to 17 at 08 UTC
Visibility: 0500 m
fog

TAF: LEGR 170200Z 1703/1803 VRB02KT 9999 FEW050 TX25/1715Z TN09/1706Z TEMPO 1703/1709 4000 BR BKN005 PROB40 TEMPO 1704/1708 0500 FG

Weather observations and forecasts of more than 4000 airports (METAR and TAF reports).

The available stations are represented by yellow and red dots on the map.

Hover mouse over dot to see the name of the station.

Then click to see weather observations and forecasts.

To change the map : click on the green buttons with a black cross to zoom in, on the green button with a dash to zoom out, or on the green arrows for adjacent maps.


METAR-TAF: